sensor_id;sensor_type;location;lat;lon;timestamp;temperature;humidity
35381;DHT22;21486;51.916;8.378;2024-01-25T00:01:30;8.70;99.90
35381;DHT22;21486;51.916;8.378;2024-01-25T00:03:55;8.60;99.90
35381;DHT22;21486;51.916;8.378;2024-01-25T00:06:21;8.60;99.90
35381;DHT22;21486;51.916;8.378;2024-01-25T00:08:46;8.60;99.90
35381;DHT22;21486;51.916;8.378;2024-01-25T00:11:12;8.60;99.90
35381;DHT22;21486;51.916;8.378;2024-01-25T00:13:38;8.70;99.90
35381;DHT22;21486;51.916;8.378;2024-01-25T00:16:04;8.70;99.90
35381;DHT22;21486;51.916;8.378;2024-01-25T00:18:30;8.80;99.90
35381;DHT22;21486;51.916;8.378;2024-01-25T00:20:55;8.70;99.90
35381;DHT22;21486;51.916;8.378;2024-01-25T00:23:21;8.70;99.90
35381;DHT22;21486;51.916;8.378;2024-01-25T00:25:47;8.60;99.90
35381;DHT22;21486;51.916;8.378;2024-01-25T00:28:12;8.60;99.90
35381;DHT22;21486;51.916;8.378;2024-01-25T00:30:39;8.60;99.90
35381;DHT22;21486;51.916;8.378;2024-01-25T00:33:04;8.60;99.90
35381;DHT22;21486;51.916;8.378;2024-01-25T00:35:30;8.60;99.90
35381;DHT22;21486;51.916;8.378;2024-01-25T00:37:56;8.60;99.90
35381;DHT22;21486;51.916;8.378;2024-01-25T00:40:22;8.60;99.90
35381;DHT22;21486;51.916;8.378;2024-01-25T00:42:48;8.60;99.90
35381;DHT22;21486;51.916;8.378;2024-01-25T00:45:20;8.60;99.90
35381;DHT22;21486;51.916;8.378;2024-01-25T00:47:46;8.60;99.90
35381;DHT22;21486;51.916;8.378;2024-01-25T00:50:12;8.60;99.90
35381;DHT22;21486;51.916;8.378;2024-01-25T00:52:38;8.60;99.90
35381;DHT22;21486;51.916;8.378;2024-01-25T00:55:04;8.60;99.90
35381;DHT22;21486;51.916;8.378;2024-01-25T00:57:31;8.60;99.90
35381;DHT22;21486;51.916;8.378;2024-01-25T00:59:58;8.60;99.90
35381;DHT22;21486;51.916;8.378;2024-01-25T01:02:23;8.60;99.90
35381;DHT22;21486;51.916;8.378;2024-01-25T01:04:49;8.60;99.90
35381;DHT22;21486;51.916;8.378;2024-01-25T01:07:15;8.60;99.90
35381;DHT22;21486;51.916;8.378;2024-01-25T01:09:41;8.60;99.90
35381;DHT22;21486;51.916;8.378;2024-01-25T01:12:07;8.60;99.90
35381;DHT22;21486;51.916;8.378;2024-01-25T01:14:32;8.50;99.90
35381;DHT22;21486;51.916;8.378;2024-01-25T01:16:58;8.50;99.90
35381;DHT22;21486;51.916;8.378;2024-01-25T01:19:23;8.50;99.90
35381;DHT22;21486;51.916;8.378;2024-01-25T01:21:49;8.50;99.90
35381;DHT22;21486;51.916;8.378;2024-01-25T01:24:14;8.50;99.90
35381;DHT22;21486;51.916;8.378;2024-01-25T01:26:40;8.50;99.90
35381;DHT22;21486;51.916;8.378;2024-01-25T01:29:07;8.40;99.90
35381;DHT22;21486;51.916;8.378;2024-01-25T01:33:03;8.30;99.90
35381;DHT22;21486;51.916;8.378;2024-01-25T01:35:28;8.30;99.90
35381;DHT22;21486;51.916;8.378;2024-01-25T01:37:54;8.30;99.90
35381;DHT22;21486;51.916;8.378;2024-01-25T01:40:19;8.40;99.90
35381;DHT22;21486;51.916;8.378;2024-01-25T01:42:45;8.20;99.90
35381;DHT22;21486;51.916;8.378;2024-01-25T01:45:11;8.20;99.90
35381;DHT22;21486;51.916;8.378;2024-01-25T01:47:38;8.10;99.90
35381;DHT22;21486;51.916;8.378;2024-01-25T01:50:05;8.10;99.90
35381;DHT22;21486;51.916;8.378;2024-01-25T01:52:31;8.00;99.90
35381;DHT22;21486;51.916;8.378;2024-01-25T01:54:56;8.00;99.90
35381;DHT22;21486;51.916;8.378;2024-01-25T01:57:22;8.00;99.90
35381;DHT22;21486;51.916;8.378;2024-01-25T01:59:47;7.90;99.90
35381;DHT22;21486;51.916;8.378;2024-01-25T02:02:14;7.90;99.90
35381;DHT22;21486;51.916;8.378;2024-01-25T02:04:40;7.90;99.90
35381;DHT22;21486;51.916;8.378;2024-01-25T02:07:05;7.80;99.90
35381;DHT22;21486;51.916;8.378;2024-01-25T02:09:32;7.80;99.90
35381;DHT22;21486;51.916;8.378;2024-01-25T02:12:03;7.80;99.90
35381;DHT22;21486;51.916;8.378;2024-01-25T02:14:30;7.80;99.90
35381;DHT22;21486;51.916;8.378;2024-01-25T02:16:56;7.80;99.90
35381;DHT22;21486;51.916;8.378;2024-01-25T02:19:21;7.80;99.90
35381;DHT22;21486;51.916;8.378;2024-01-25T02:21:47;7.70;99.90
35381;DHT22;21486;51.916;8.378;2024-01-25T02:24:13;7.70;99.90
35381;DHT22;21486;51.916;8.378;2024-01-25T02:26:39;7.70;99.90
35381;DHT22;21486;51.916;8.378;2024-01-25T02:29:04;7.70;99.90
35381;DHT22;21486;51.916;8.378;2024-01-25T02:31:32;7.60;99.90
35381;DHT22;21486;51.916;8.378;2024-01-25T02:33:58;7.70;99.90
35381;DHT22;21486;51.916;8.378;2024-01-25T02:36:23;7.80;99.90
35381;DHT22;21486;51.916;8.378;2024-01-25T02:48:55;7.70;99.90
35381;DHT22;21486;51.916;8.378;2024-01-25T02:51:20;7.70;99.90
35381;DHT22;21486;51.916;8.378;2024-01-25T02:53:46;7.70;99.90
35381;DHT22;21486;51.916;8.378;2024-01-25T02:56:11;7.70;99.90
35381;DHT22;21486;51.916;8.378;2024-01-25T02:58:37;7.70;99.90
35381;DHT22;21486;51.916;8.378;2024-01-25T03:01:02;7.70;99.90
35381;DHT22;21486;51.916;8.378;2024-01-25T03:03:28;7.70;99.90
35381;DHT22;21486;51.916;8.378;2024-01-25T03:05:53;7.70;99.90
35381;DHT22;21486;51.916;8.378;2024-01-25T03:08:19;7.70;99.90
35381;DHT22;21486;51.916;8.378;2024-01-25T03:10:46;7.70;99.90
35381;DHT22;21486;51.916;8.378;2024-01-25T03:13:11;7.60;99.90
35381;DHT22;21486;51.916;8.378;2024-01-25T03:15:37;7.60;99.90
35381;DHT22;21486;51.916;8.378;2024-01-25T03:18:02;7.60;99.90
35381;DHT22;21486;51.916;8.378;2024-01-25T03:20:28;7.60;99.90
35381;DHT22;21486;51.916;8.378;2024-01-25T03:22:54;7.60;99.90
35381;DHT22;21486;51.916;8.378;2024-01-25T03:25:19;7.60;99.90
35381;DHT22;21486;51.916;8.378;2024-01-25T03:27:45;7.60;99.90
35381;DHT22;21486;51.916;8.378;2024-01-25T03:30:11;7.60;99.90
35381;DHT22;21486;51.916;8.378;2024-01-25T03:32:36;7.50;99.90
35381;DHT22;21486;51.916;8.378;2024-01-25T03:35:02;7.60;99.90
35381;DHT22;21486;51.916;8.378;2024-01-25T03:37:27;7.50;99.90
35381;DHT22;21486;51.916;8.378;2024-01-25T03:39:53;7.50;99.90
35381;DHT22;21486;51.916;8.378;2024-01-25T03:42:18;7.60;99.90
35381;DHT22;21486;51.916;8.378;2024-01-25T03:44:44;7.50;99.90
35381;DHT22;21486;51.916;8.378;2024-01-25T03:47:10;7.60;99.90
35381;DHT22;21486;51.916;8.378;2024-01-25T03:49:36;7.50;99.90
35381;DHT22;21486;51.916;8.378;2024-01-25T03:52:03;7.40;99.90
35381;DHT22;21486;51.916;8.378;2024-01-25T03:54:29;7.40;99.90
35381;DHT22;21486;51.916;8.378;2024-01-25T03:56:55;7.30;99.90
35381;DHT22;21486;51.916;8.378;2024-01-25T03:59:20;7.30;99.90
35381;DHT22;21486;51.916;8.378;2024-01-25T04:01:46;7.30;99.90
35381;DHT22;21486;51.916;8.378;2024-01-25T04:04:13;7.30;99.90
35381;DHT22;21486;51.916;8.378;2024-01-25T04:06:41;7.30;99.90
35381;DHT22;21486;51.916;8.378;2024-01-25T04:09:08;7.30;99.90
35381;DHT22;21486;51.916;8.378;2024-01-25T04:11:33;7.20;99.90
35381;DHT22;21486;51.916;8.378;2024-01-25T04:13:59;7.10;99.90
35381;DHT22;21486;51.916;8.378;2024-01-25T04:16:25;7.00;99.90
35381;DHT22;21486;51.916;8.378;2024-01-25T04:18:51;7.10;99.90
35381;DHT22;21486;51.916;8.378;2024-01-25T04:21:16;7.10;99.90
35381;DHT22;21486;51.916;8.378;2024-01-25T04:23:42;7.10;99.90
35381;DHT22;21486;51.916;8.378;2024-01-25T04:26:08;7.10;99.90
35381;DHT22;21486;51.916;8.378;2024-01-25T04:28:33;7.10;99.90
35381;DHT22;21486;51.916;8.378;2024-01-25T04:30:58;7.20;99.90
35381;DHT22;21486;51.916;8.378;2024-01-25T04:33:24;7.20;99.90
35381;DHT22;21486;51.916;8.378;2024-01-25T04:35:49;7.20;99.90
35381;DHT22;21486;51.916;8.378;2024-01-25T04:38:15;7.30;99.90
35381;DHT22;21486;51.916;8.378;2024-01-25T04:40:40;7.10;99.90
35381;DHT22;21486;51.916;8.378;2024-01-25T04:43:06;7.10;99.90
35381;DHT22;21486;51.916;8.378;2024-01-25T04:45:31;7.00;99.90
35381;DHT22;21486;51.916;8.378;2024-01-25T04:47:57;7.10;99.90
35381;DHT22;21486;51.916;8.378;2024-01-25T04:50:23;7.10;99.90
35381;DHT22;21486;51.916;8.378;2024-01-25T04:52:48;7.00;99.90
35381;DHT22;21486;51.916;8.378;2024-01-25T04:55:14;7.10;99.90
35381;DHT22;21486;51.916;8.378;2024-01-25T04:57:39;7.10;99.90
35381;DHT22;21486;51.916;8.378;2024-01-25T05:00:05;7.00;99.90
35381;DHT22;21486;51.916;8.378;2024-01-25T05:02:32;7.00;99.90
35381;DHT22;21486;51.916;8.378;2024-01-25T05:04:57;7.00;99.90
35381;DHT22;21486;51.916;8.378;2024-01-25T05:07:23;7.00;99.90
35381;DHT22;21486;51.916;8.378;2024-01-25T05:09:48;6.90;99.90
35381;DHT22;21486;51.916;8.378;2024-01-25T05:12:13;6.90;99.90
35381;DHT22;21486;51.916;8.378;2024-01-25T05:14:39;6.90;99.90
35381;DHT22;21486;51.916;8.378;2024-01-25T05:17:04;7.00;99.90
35381;DHT22;21486;51.916;8.378;2024-01-25T05:19:30;6.90;99.90
35381;DHT22;21486;51.916;8.378;2024-01-25T05:21:56;6.90;99.90
35381;DHT22;21486;51.916;8.378;2024-01-25T05:24:22;6.90;99.90
35381;DHT22;21486;51.916;8.378;2024-01-25T05:26:47;6.80;99.90
35381;DHT22;21486;51.916;8.378;2024-01-25T05:29:13;6.80;99.90
35381;DHT22;21486;51.916;8.378;2024-01-25T05:31:38;6.70;99.90
35381;DHT22;21486;51.916;8.378;2024-01-25T05:34:04;6.60;99.90
35381;DHT22;21486;51.916;8.378;2024-01-25T05:36:29;6.50;99.90
35381;DHT22;21486;51.916;8.378;2024-01-25T05:38:55;6.50;99.90
35381;DHT22;21486;51.916;8.378;2024-01-25T05:41:20;6.40;99.90
35381;DHT22;21486;51.916;8.378;2024-01-25T05:43:46;6.40;99.90
35381;DHT22;21486;51.916;8.378;2024-01-25T05:46:11;6.30;99.90
35381;DHT22;21486;51.916;8.378;2024-01-25T05:48:37;6.20;99.90
35381;DHT22;21486;51.916;8.378;2024-01-25T05:51:02;6.20;99.90
35381;DHT22;21486;51.916;8.378;2024-01-25T05:53:28;6.20;99.90
35381;DHT22;21486;51.916;8.378;2024-01-25T05:55:53;6.20;99.90
35381;DHT22;21486;51.916;8.378;2024-01-25T05:58:19;6.10;99.90
35381;DHT22;21486;51.916;8.378;2024-01-25T06:00:44;6.10;99.90
35381;DHT22;21486;51.916;8.378;2024-01-25T06:03:10;6.10;99.90
35381;DHT22;21486;51.916;8.378;2024-01-25T06:05:36;5.90;99.90
35381;DHT22;21486;51.916;8.378;2024-01-25T06:08:01;5.90;99.90
35381;DHT22;21486;51.916;8.378;2024-01-25T06:10:27;5.80;99.90
35381;DHT22;21486;51.916;8.378;2024-01-25T06:12:52;5.90;99.90
35381;DHT22;21486;51.916;8.378;2024-01-25T06:15:18;5.90;99.90
35381;DHT22;21486;51.916;8.378;2024-01-25T06:17:43;5.80;99.90
35381;DHT22;21486;51.916;8.378;2024-01-25T06:20:09;5.70;99.90
35381;DHT22;21486;51.916;8.378;2024-01-25T06:22:36;5.60;99.90
35381;DHT22;21486;51.916;8.378;2024-01-25T06:25:01;5.50;99.90
35381;DHT22;21486;51.916;8.378;2024-01-25T06:27:29;5.50;99.90
35381;DHT22;21486;51.916;8.378;2024-01-25T06:29:54;5.40;99.90
35381;DHT22;21486;51.916;8.378;2024-01-25T06:32:20;5.50;99.90
35381;DHT22;21486;51.916;8.378;2024-01-25T06:34:45;5.50;99.90
35381;DHT22;21486;51.916;8.378;2024-01-25T06:37:11;5.40;99.90
35381;DHT22;21486;51.916;8.378;2024-01-25T06:39:40;5.30;99.90
35381;DHT22;21486;51.916;8.378;2024-01-25T06:42:06;5.30;99.90
35381;DHT22;21486;51.916;8.378;2024-01-25T06:44:31;5.10;99.90
35381;DHT22;21486;51.916;8.378;2024-01-25T06:46:57;5.20;99.90
35381;DHT22;21486;51.916;8.378;2024-01-25T06:49:22;5.30;99.90
35381;DHT22;21486;51.916;8.378;2024-01-25T06:51:48;5.20;99.90
35381;DHT22;21486;51.916;8.378;2024-01-25T06:54:13;5.10;99.90
35381;DHT22;21486;51.916;8.378;2024-01-25T06:56:39;5.20;99.90
35381;DHT22;21486;51.916;8.378;2024-01-25T06:59:05;5.10;99.90
35381;DHT22;21486;51.916;8.378;2024-01-25T07:01:30;5.10;99.90
35381;DHT22;21486;51.916;8.378;2024-01-25T07:03:56;5.20;99.90
35381;DHT22;21486;51.916;8.378;2024-01-25T07:06:21;5.10;99.90
35381;DHT22;21486;51.916;8.378;2024-01-25T07:08:47;5.20;99.90
35381;DHT22;21486;51.916;8.378;2024-01-25T07:11:12;5.10;99.90
35381;DHT22;21486;51.916;8.378;2024-01-25T07:13:38;5.10;99.90
35381;DHT22;21486;51.916;8.378;2024-01-25T07:16:04;5.00;99.90
35381;DHT22;21486;51.916;8.378;2024-01-25T07:18:29;5.00;99.90
35381;DHT22;21486;51.916;8.378;2024-01-25T07:20:55;5.00;99.90
35381;DHT22;21486;51.916;8.378;2024-01-25T07:23:21;5.00;99.90
35381;DHT22;21486;51.916;8.378;2024-01-25T07:25:47;4.90;99.90
35381;DHT22;21486;51.916;8.378;2024-01-25T07:28:12;4.90;99.90
35381;DHT22;21486;51.916;8.378;2024-01-25T07:30:38;4.90;99.90
35381;DHT22;21486;51.916;8.378;2024-01-25T07:33:03;4.90;99.90
35381;DHT22;21486;51.916;8.378;2024-01-25T07:35:29;5.00;99.90
35381;DHT22;21486;51.916;8.378;2024-01-25T07:37:55;5.00;99.90
35381;DHT22;21486;51.916;8.378;2024-01-25T07:40:20;4.90;99.90
35381;DHT22;21486;51.916;8.378;2024-01-25T07:42:46;4.90;99.90
35381;DHT22;21486;51.916;8.378;2024-01-25T07:45:12;4.90;99.90
35381;DHT22;21486;51.916;8.378;2024-01-25T07:47:40;5.00;99.90
35381;DHT22;21486;51.916;8.378;2024-01-25T07:50:06;5.00;99.90
35381;DHT22;21486;51.916;8.378;2024-01-25T07:52:32;5.00;99.90
35381;DHT22;21486;51.916;8.378;2024-01-25T07:54:57;5.00;99.90
35381;DHT22;21486;51.916;8.378;2024-01-25T07:57:23;5.00;99.90
35381;DHT22;21486;51.916;8.378;2024-01-25T07:59:48;5.00;99.90
35381;DHT22;21486;51.916;8.378;2024-01-25T08:02:14;5.00;99.90
35381;DHT22;21486;51.916;8.378;2024-01-25T08:04:42;5.00;99.90
35381;DHT22;21486;51.916;8.378;2024-01-25T08:07:07;5.10;99.90
35381;DHT22;21486;51.916;8.378;2024-01-25T08:09:34;5.10;99.90
35381;DHT22;21486;51.916;8.378;2024-01-25T08:11:59;5.10;99.90
35381;DHT22;21486;51.916;8.378;2024-01-25T08:14:25;5.20;99.90
35381;DHT22;21486;51.916;8.378;2024-01-25T08:16:50;5.30;99.90
35381;DHT22;21486;51.916;8.378;2024-01-25T08:19:16;5.40;99.90
35381;DHT22;21486;51.916;8.378;2024-01-25T08:21:41;5.30;99.90
35381;DHT22;21486;51.916;8.378;2024-01-25T08:24:07;5.30;99.90
35381;DHT22;21486;51.916;8.378;2024-01-25T08:26:33;5.30;99.90
35381;DHT22;21486;51.916;8.378;2024-01-25T08:29:00;5.30;99.90
35381;DHT22;21486;51.916;8.378;2024-01-25T08:31:26;5.30;99.90
35381;DHT22;21486;51.916;8.378;2024-01-25T08:33:52;5.40;99.90
35381;DHT22;21486;51.916;8.378;2024-01-25T08:36:17;5.50;99.90
35381;DHT22;21486;51.916;8.378;2024-01-25T08:38:44;5.60;99.90
35381;DHT22;21486;51.916;8.378;2024-01-25T08:41:09;5.60;99.90
35381;DHT22;21486;51.916;8.378;2024-01-25T08:43:36;5.70;99.90
35381;DHT22;21486;51.916;8.378;2024-01-25T08:46:02;5.80;99.90
35381;DHT22;21486;51.916;8.378;2024-01-25T08:48:28;5.90;99.90
35381;DHT22;21486;51.916;8.378;2024-01-25T08:50:53;5.90;99.90
35381;DHT22;21486;51.916;8.378;2024-01-25T08:53:20;6.00;99.90
35381;DHT22;21486;51.916;8.378;2024-01-25T08:55:48;6.00;99.90
35381;DHT22;21486;51.916;8.378;2024-01-25T08:58:13;6.10;99.90
35381;DHT22;21486;51.916;8.378;2024-01-25T09:00:39;6.10;99.90
35381;DHT22;21486;51.916;8.378;2024-01-25T09:03:04;6.10;99.90
35381;DHT22;21486;51.916;8.378;2024-01-25T09:05:31;6.20;99.90
35381;DHT22;21486;51.916;8.378;2024-01-25T09:07:59;6.30;99.90
35381;DHT22;21486;51.916;8.378;2024-01-25T09:10:25;6.40;99.90
35381;DHT22;21486;51.916;8.378;2024-01-25T09:12:51;6.60;99.90
35381;DHT22;21486;51.916;8.378;2024-01-25T09:15:16;6.50;99.90
35381;DHT22;21486;51.916;8.378;2024-01-25T09:17:42;6.60;99.90
35381;DHT22;21486;51.916;8.378;2024-01-25T09:20:08;6.80;99.90
35381;DHT22;21486;51.916;8.378;2024-01-25T09:22:34;6.90;99.90
35381;DHT22;21486;51.916;8.378;2024-01-25T09:24:59;6.80;99.90
35381;DHT22;21486;51.916;8.378;2024-01-25T09:27:25;6.80;99.90
35381;DHT22;21486;51.916;8.378;2024-01-25T09:29:50;6.80;99.90
35381;DHT22;21486;51.916;8.378;2024-01-25T09:32:16;6.80;99.90
35381;DHT22;21486;51.916;8.378;2024-01-25T09:34:42;6.80;99.90
35381;DHT22;21486;51.916;8.378;2024-01-25T09:37:07;6.70;99.90
35381;DHT22;21486;51.916;8.378;2024-01-25T09:39:33;6.70;99.90
35381;DHT22;21486;51.916;8.378;2024-01-25T09:42:00;6.70;99.90
35381;DHT22;21486;51.916;8.378;2024-01-25T09:44:26;6.60;99.90
35381;DHT22;21486;51.916;8.378;2024-01-25T09:46:52;6.70;99.90
35381;DHT22;21486;51.916;8.378;2024-01-25T09:49:17;6.70;99.90
35381;DHT22;21486;51.916;8.378;2024-01-25T09:51:43;6.80;99.90
35381;DHT22;21486;51.916;8.378;2024-01-25T09:54:09;6.80;99.90
35381;DHT22;21486;51.916;8.378;2024-01-25T09:56:35;6.90;99.90
35381;DHT22;21486;51.916;8.378;2024-01-25T09:59:01;7.10;99.90
35381;DHT22;21486;51.916;8.378;2024-01-25T10:01:27;7.30;99.90
35381;DHT22;21486;51.916;8.378;2024-01-25T10:03:53;7.30;99.90
35381;DHT22;21486;51.916;8.378;2024-01-25T10:06:21;7.40;99.90
35381;DHT22;21486;51.916;8.378;2024-01-25T10:08:47;7.60;99.90
35381;DHT22;21486;51.916;8.378;2024-01-25T10:11:12;7.50;99.90
35381;DHT22;21486;51.916;8.378;2024-01-25T10:13:42;7.60;99.90
35381;DHT22;21486;51.916;8.378;2024-01-25T10:16:11;7.70;99.90
35381;DHT22;21486;51.916;8.378;2024-01-25T10:18:40;7.70;99.90
35381;DHT22;21486;51.916;8.378;2024-01-25T10:21:06;7.50;99.90
35381;DHT22;21486;51.916;8.378;2024-01-25T10:23:31;7.40;99.90
35381;DHT22;21486;51.916;8.378;2024-01-25T10:25:58;7.30;99.90
35381;DHT22;21486;51.916;8.378;2024-01-25T10:28:24;7.40;99.90
35381;DHT22;21486;51.916;8.378;2024-01-25T10:30:59;7.60;99.90
35381;DHT22;21486;51.916;8.378;2024-01-25T10:33:27;7.70;99.90
35381;DHT22;21486;51.916;8.378;2024-01-25T10:35:56;8.10;99.90
35381;DHT22;21486;51.916;8.378;2024-01-25T10:38:35;8.20;99.90
35381;DHT22;21486;51.916;8.378;2024-01-25T10:41:04;8.40;99.90
35381;DHT22;21486;51.916;8.378;2024-01-25T10:43:31;8.30;99.90
35381;DHT22;21486;51.916;8.378;2024-01-25T10:45:57;8.20;99.90
35381;DHT22;21486;51.916;8.378;2024-01-25T10:48:27;8.10;99.90
35381;DHT22;21486;51.916;8.378;2024-01-25T10:50:56;8.10;99.90
35381;DHT22;21486;51.916;8.378;2024-01-25T10:53:23;8.10;99.90
35381;DHT22;21486;51.916;8.378;2024-01-25T10:55:49;8.30;99.90
35381;DHT22;21486;51.916;8.378;2024-01-25T10:58:16;8.30;99.90
35381;DHT22;21486;51.916;8.378;2024-01-25T11:00:49;8.40;99.90
35381;DHT22;21486;51.916;8.378;2024-01-25T11:03:15;8.60;99.90
35381;DHT22;21486;51.916;8.378;2024-01-25T11:05:43;8.40;99.90
35381;DHT22;21486;51.916;8.378;2024-01-25T11:08:20;8.30;99.90
35381;DHT22;21486;51.916;8.378;2024-01-25T11:10:52;8.40;99.90
35381;DHT22;21486;51.916;8.378;2024-01-25T11:13:24;8.80;99.90
35381;DHT22;21486;51.916;8.378;2024-01-25T11:15:51;9.00;99.90
35381;DHT22;21486;51.916;8.378;2024-01-25T11:18:17;9.10;99.90
35381;DHT22;21486;51.916;8.378;2024-01-25T11:20:47;8.60;99.90
35381;DHT22;21486;51.916;8.378;2024-01-25T11:23:15;8.30;99.90
35381;DHT22;21486;51.916;8.378;2024-01-25T11:25:45;8.20;99.90
35381;DHT22;21486;51.916;8.378;2024-01-25T11:28:14;8.10;99.90
35381;DHT22;21486;51.916;8.378;2024-01-25T11:30:43;8.20;99.90
35381;DHT22;21486;51.916;8.378;2024-01-25T11:33:08;8.10;99.90
35381;DHT22;21486;51.916;8.378;2024-01-25T11:35:35;8.00;99.90
35381;DHT22;21486;51.916;8.378;2024-01-25T11:38:01;7.90;99.90
35381;DHT22;21486;51.916;8.378;2024-01-25T11:40:27;8.10;99.90
35381;DHT22;21486;51.916;8.378;2024-01-25T11:42:53;8.00;99.90
35381;DHT22;21486;51.916;8.378;2024-01-25T11:45:19;8.10;99.90
35381;DHT22;21486;51.916;8.378;2024-01-25T11:47:45;8.20;99.90
35381;DHT22;21486;51.916;8.378;2024-01-25T11:50:12;8.30;99.90
35381;DHT22;21486;51.916;8.378;2024-01-25T11:52:38;8.50;99.90
35381;DHT22;21486;51.916;8.378;2024-01-25T11:55:07;8.50;99.90
35381;DHT22;21486;51.916;8.378;2024-01-25T11:57:43;8.50;99.90
35381;DHT22;21486;51.916;8.378;2024-01-25T12:00:13;8.40;99.90
35381;DHT22;21486;51.916;8.378;2024-01-25T12:02:40;8.50;99.90
35381;DHT22;21486;51.916;8.378;2024-01-25T12:05:06;8.60;99.90
35381;DHT22;21486;51.916;8.378;2024-01-25T12:07:35;8.50;99.90
35381;DHT22;21486;51.916;8.378;2024-01-25T12:10:04;8.50;99.90
35381;DHT22;21486;51.916;8.378;2024-01-25T12:12:30;8.40;99.90
35381;DHT22;21486;51.916;8.378;2024-01-25T12:14:59;8.40;99.90
35381;DHT22;21486;51.916;8.378;2024-01-25T12:17:29;8.60;99.90
35381;DHT22;21486;51.916;8.378;2024-01-25T12:19:58;8.80;99.90
35381;DHT22;21486;51.916;8.378;2024-01-25T12:22:27;8.70;99.90
35381;DHT22;21486;51.916;8.378;2024-01-25T12:24:56;8.60;99.90
35381;DHT22;21486;51.916;8.378;2024-01-25T12:27:22;8.50;99.90
35381;DHT22;21486;51.916;8.378;2024-01-25T12:29:49;8.50;99.90
35381;DHT22;21486;51.916;8.378;2024-01-25T12:32:16;8.60;99.90
35381;DHT22;21486;51.916;8.378;2024-01-25T12:34:41;8.70;99.90
35381;DHT22;21486;51.916;8.378;2024-01-25T12:37:09;8.60;99.90
35381;DHT22;21486;51.916;8.378;2024-01-25T12:39:34;8.60;99.90
35381;DHT22;21486;51.916;8.378;2024-01-25T12:42:00;8.60;99.90
35381;DHT22;21486;51.916;8.378;2024-01-25T12:44:25;8.50;99.90
35381;DHT22;21486;51.916;8.378;2024-01-25T12:46:51;8.40;99.90
35381;DHT22;21486;51.916;8.378;2024-01-25T12:49:17;8.30;99.90
35381;DHT22;21486;51.916;8.378;2024-01-25T12:51:43;8.40;99.90
35381;DHT22;21486;51.916;8.378;2024-01-25T12:54:08;8.30;99.90
35381;DHT22;21486;51.916;8.378;2024-01-25T12:56:35;8.10;99.90
35381;DHT22;21486;51.916;8.378;2024-01-25T12:59:00;8.40;99.90
35381;DHT22;21486;51.916;8.378;2024-01-25T13:01:26;8.40;99.90
35381;DHT22;21486;51.916;8.378;2024-01-25T13:03:52;8.40;99.90
35381;DHT22;21486;51.916;8.378;2024-01-25T13:06:18;8.30;99.90
35381;DHT22;21486;51.916;8.378;2024-01-25T13:08:43;8.30;99.90
35381;DHT22;21486;51.916;8.378;2024-01-25T13:11:09;8.10;99.90
35381;DHT22;21486;51.916;8.378;2024-01-25T13:13:34;8.10;99.90
35381;DHT22;21486;51.916;8.378;2024-01-25T13:16:00;8.00;99.90
35381;DHT22;21486;51.916;8.378;2024-01-25T13:18:25;8.00;99.90
35381;DHT22;21486;51.916;8.378;2024-01-25T13:20:51;8.10;99.90
35381;DHT22;21486;51.916;8.378;2024-01-25T13:23:16;8.00;99.90
35381;DHT22;21486;51.916;8.378;2024-01-25T13:25:42;7.80;99.90
35381;DHT22;21486;51.916;8.378;2024-01-25T13:28:08;7.80;99.90
35381;DHT22;21486;51.916;8.378;2024-01-25T13:30:33;7.90;99.90
35381;DHT22;21486;51.916;8.378;2024-01-25T13:32:59;7.90;99.90
35381;DHT22;21486;51.916;8.378;2024-01-25T13:35:24;7.90;99.90
35381;DHT22;21486;51.916;8.378;2024-01-25T13:37:50;7.90;99.90
35381;DHT22;21486;51.916;8.378;2024-01-25T13:40:15;7.90;99.90
35381;DHT22;21486;51.916;8.378;2024-01-25T13:42:41;7.80;99.90
35381;DHT22;21486;51.916;8.378;2024-01-25T13:45:07;8.00;99.90
35381;DHT22;21486;51.916;8.378;2024-01-25T13:47:32;8.10;99.90
35381;DHT22;21486;51.916;8.378;2024-01-25T13:49:58;8.10;99.90
35381;DHT22;21486;51.916;8.378;2024-01-25T13:52:23;8.10;99.90
35381;DHT22;21486;51.916;8.378;2024-01-25T13:54:49;8.00;99.90
35381;DHT22;21486;51.916;8.378;2024-01-25T13:57:15;8.10;99.90
35381;DHT22;21486;51.916;8.378;2024-01-25T13:59:40;8.00;99.90
35381;DHT22;21486;51.916;8.378;2024-01-25T14:02:06;8.00;99.90
35381;DHT22;21486;51.916;8.378;2024-01-25T14:04:32;8.00;99.90
35381;DHT22;21486;51.916;8.378;2024-01-25T14:06:57;8.00;99.90
35381;DHT22;21486;51.916;8.378;2024-01-25T14:09:23;8.10;99.90
35381;DHT22;21486;51.916;8.378;2024-01-25T14:11:48;8.20;99.90
35381;DHT22;21486;51.916;8.378;2024-01-25T14:14:13;8.30;99.90
35381;DHT22;21486;51.916;8.378;2024-01-25T14:16:39;8.30;99.90
35381;DHT22;21486;51.916;8.378;2024-01-25T14:19:04;8.20;99.90
35381;DHT22;21486;51.916;8.378;2024-01-25T14:21:31;8.10;99.90
35381;DHT22;21486;51.916;8.378;2024-01-25T14:23:57;8.00;99.90
35381;DHT22;21486;51.916;8.378;2024-01-25T14:26:22;8.00;99.90
35381;DHT22;21486;51.916;8.378;2024-01-25T14:28:48;7.90;99.90
35381;DHT22;21486;51.916;8.378;2024-01-25T14:31:13;8.00;99.90
35381;DHT22;21486;51.916;8.378;2024-01-25T14:33:39;8.00;99.90
35381;DHT22;21486;51.916;8.378;2024-01-25T14:36:05;8.00;99.90
35381;DHT22;21486;51.916;8.378;2024-01-25T14:38:30;8.00;99.90
35381;DHT22;21486;51.916;8.378;2024-01-25T14:40:56;7.90;99.90
35381;DHT22;21486;51.916;8.378;2024-01-25T14:43:21;8.00;99.90
35381;DHT22;21486;51.916;8.378;2024-01-25T14:45:47;8.00;99.90
35381;DHT22;21486;51.916;8.378;2024-01-25T14:48:12;8.00;99.90
35381;DHT22;21486;51.916;8.378;2024-01-25T14:50:38;8.00;99.90
35381;DHT22;21486;51.916;8.378;2024-01-25T14:53:04;7.90;99.90
35381;DHT22;21486;51.916;8.378;2024-01-25T14:55:29;7.80;99.90
35381;DHT22;21486;51.916;8.378;2024-01-25T14:57:55;7.80;99.90
35381;DHT22;21486;51.916;8.378;2024-01-25T15:00:20;7.90;99.90
35381;DHT22;21486;51.916;8.378;2024-01-25T15:02:46;7.90;99.90
35381;DHT22;21486;51.916;8.378;2024-01-25T15:05:12;7.80;99.90
35381;DHT22;21486;51.916;8.378;2024-01-25T15:07:39;7.80;99.90
35381;DHT22;21486;51.916;8.378;2024-01-25T15:10:04;7.80;99.90
35381;DHT22;21486;51.916;8.378;2024-01-25T15:12:30;7.70;99.90
35381;DHT22;21486;51.916;8.378;2024-01-25T15:14:56;7.80;99.90
35381;DHT22;21486;51.916;8.378;2024-01-25T15:17:21;7.70;99.90
35381;DHT22;21486;51.916;8.378;2024-01-25T15:19:47;7.70;99.90
35381;DHT22;21486;51.916;8.378;2024-01-25T15:22:12;7.70;99.90
35381;DHT22;21486;51.916;8.378;2024-01-25T15:24:38;7.70;99.90
35381;DHT22;21486;51.916;8.378;2024-01-25T15:27:03;7.60;99.90
35381;DHT22;21486;51.916;8.378;2024-01-25T15:29:31;7.50;99.90
35381;DHT22;21486;51.916;8.378;2024-01-25T15:31:56;7.40;99.90
35381;DHT22;21486;51.916;8.378;2024-01-25T15:34:22;7.40;99.90
35381;DHT22;21486;51.916;8.378;2024-01-25T15:36:47;7.40;99.90
35381;DHT22;21486;51.916;8.378;2024-01-25T15:39:13;7.30;99.90
35381;DHT22;21486;51.916;8.378;2024-01-25T15:41:39;7.30;99.90
35381;DHT22;21486;51.916;8.378;2024-01-25T15:44:05;7.30;99.90
35381;DHT22;21486;51.916;8.378;2024-01-25T15:46:30;7.30;99.90
35381;DHT22;21486;51.916;8.378;2024-01-25T15:48:56;7.30;99.90